createdAt,value
2018-11-05T00:00:29.165Z,0.00
2018-11-05T00:01:29.164Z,0.00
2018-11-05T00:02:29.069Z,0.00
2018-11-05T00:03:29.031Z,0.00
2018-11-05T00:04:29.011Z,0.00
2018-11-05T00:05:28.931Z,0.00
2018-11-05T00:06:28.864Z,0.00
2018-11-05T00:07:28.805Z,0.00
2018-11-05T00:08:28.766Z,0.00
2018-11-05T00:09:28.736Z,0.00
2018-11-05T00:10:28.660Z,0.00
2018-11-05T00:11:28.604Z,0.00
2018-11-05T00:12:28.564Z,0.00
2018-11-05T00:13:28.508Z,0.00
2018-11-05T00:14:28.485Z,0.00
2018-11-05T00:15:28.414Z,0.00
2018-11-05T00:16:28.356Z,0.00
2018-11-05T00:17:28.300Z,0.00
2018-11-05T00:18:28.251Z,0.00
2018-11-05T00:19:28.228Z,0.00
2018-11-05T00:20:28.146Z,0.00
2018-11-05T00:21:28.100Z,0.00
2018-11-05T00:22:28.043Z,0.00
2018-11-05T00:23:28.001Z,0.00
2018-11-05T00:24:27.964Z,0.00
2018-11-05T00:25:27.881Z,0.00
2018-11-05T00:26:27.840Z,0.00
2018-11-05T00:27:27.812Z,0.00
2018-11-05T00:28:27.747Z,0.00
2018-11-05T00:29:27.746Z,0.00
2018-11-05T00:30:27.629Z,0.00
2018-11-05T00:31:27.585Z,0.00
2018-11-05T00:32:27.525Z,0.00
2018-11-05T00:33:27.475Z,0.00
2018-11-05T00:34:27.446Z,0.00
2018-11-05T00:35:27.379Z,0.00
2018-11-05T00:36:27.321Z,0.00
2018-11-05T00:37:27.260Z,0.00
2018-11-05T00:38:27.233Z,0.00
2018-11-05T00:39:27.196Z,0.00
2018-11-05T00:40:27.114Z,0.00
2018-11-05T00:41:27.059Z,0.00
2018-11-05T00:42:27.004Z,0.00
2018-11-05T00:43:26.964Z,0.00
2018-11-05T00:44:26.937Z,0.00
2018-11-05T00:45:26.889Z,0.00
2018-11-05T00:46:26.823Z,0.00
2018-11-05T00:47:26.761Z,0.00
2018-11-05T00:48:26.690Z,0.00
2018-11-05T00:49:26.680Z,0.00
2018-11-05T00:50:26.595Z,0.00
2018-11-05T00:51:26.529Z,0.00
2018-11-05T00:52:26.491Z,0.00
2018-11-05T00:53:26.434Z,0.00
2018-11-05T00:54:26.413Z,0.00
2018-11-05T00:55:26.319Z,0.00
2018-11-05T00:56:26.304Z,0.00
2018-11-05T00:57:26.238Z,0.00
2018-11-05T00:58:26.197Z,0.00
2018-11-05T00:59:26.152Z,0.00
2018-11-05T01:00:26.109Z,0.00
2018-11-05T01:01:26.010Z,0.00
2018-11-05T01:02:25.956Z,0.00
2018-11-05T01:03:25.914Z,0.00
2018-11-05T01:04:25.898Z,0.00
2018-11-05T01:05:25.866Z,0.00
2018-11-05T01:06:25.764Z,0.00
2018-11-05T01:07:25.724Z,0.00
2018-11-05T01:08:25.666Z,0.00
2018-11-05T01:09:25.626Z,0.00
2018-11-05T01:10:25.548Z,0.00
2018-11-05T01:11:25.492Z,0.00
2018-11-05T01:12:25.475Z,0.00
2018-11-05T01:13:25.403Z,0.00
2018-11-05T01:14:25.369Z,0.00
2018-11-05T01:15:25.290Z,0.00
2018-11-05T01:16:25.235Z,0.00
2018-11-05T01:17:25.173Z,0.00
2018-11-05T01:18:25.131Z,0.00
2018-11-05T01:19:25.108Z,0.00
2018-11-05T01:20:25.019Z,0.00
2018-11-05T01:21:24.994Z,0.00
2018-11-05T01:22:24.913Z,0.00
2018-11-05T01:23:24.868Z,0.00
2018-11-05T01:24:24.849Z,0.00
2018-11-05T01:25:24.755Z,0.00
2018-11-05T01:26:24.720Z,0.00
2018-11-05T01:27:24.664Z,0.00
2018-11-05T01:28:24.598Z,0.00
2018-11-05T01:29:24.577Z,0.00
2018-11-05T01:30:24.497Z,0.00
2018-11-05T01:31:24.450Z,0.00
2018-11-05T01:32:24.387Z,0.00
2018-11-05T01:33:24.341Z,0.00
2018-11-05T01:34:24.341Z,0.00
2018-11-05T01:35:24.238Z,0.00
2018-11-05T01:36:24.187Z,0.00
2018-11-05T01:37:24.133Z,0.00
2018-11-05T01:38:24.086Z,0.00
2018-11-05T01:39:24.056Z,0.00
2018-11-05T01:40:23.981Z,0.00
2018-11-05T01:41:23.929Z,0.00
2018-11-05T01:42:23.930Z,0.00
2018-11-05T01:43:23.821Z,0.00
2018-11-05T01:44:23.800Z,0.00
2018-11-05T01:45:23.720Z,0.00
2018-11-05T01:46:23.692Z,0.00
2018-11-05T01:47:23.606Z,0.00
2018-11-05T01:48:23.554Z,0.00
2018-11-05T01:49:23.527Z,0.00
2018-11-05T01:50:23.458Z,0.00
2018-11-05T01:51:23.411Z,0.00
2018-11-05T01:52:23.368Z,0.00
2018-11-05T01:53:23.299Z,0.00
2018-11-05T01:54:23.280Z,0.00
2018-11-05T01:55:23.196Z,0.00
2018-11-05T01:56:23.134Z,0.00
2018-11-05T01:57:23.085Z,0.00
2018-11-05T01:58:23.042Z,0.00
2018-11-05T01:59:23.009Z,0.00
2018-11-05T02:00:22.923Z,0.00
2018-11-05T02:01:22.881Z,0.00
2018-11-05T02:02:22.822Z,0.00
2018-11-05T02:03:22.767Z,0.00
2018-11-05T02:04:22.747Z,0.00
2018-11-05T02:05:22.665Z,0.00
2018-11-05T02:06:22.634Z,0.00
2018-11-05T02:07:22.577Z,0.00
2018-11-05T02:08:22.514Z,0.00
2018-11-05T02:09:22.473Z,0.00
2018-11-05T02:10:22.599Z,0.00
2018-11-05T02:11:22.351Z,0.00
2018-11-05T02:12:22.308Z,0.00
2018-11-05T02:13:22.317Z,0.00
2018-11-05T02:14:22.194Z,0.00
2018-11-05T02:15:22.179Z,0.00
2018-11-05T02:16:22.091Z,0.00
2018-11-05T02:17:22.048Z,0.00
2018-11-05T02:18:21.993Z,0.00
2018-11-05T02:19:21.939Z,0.00
2018-11-05T02:20:21.914Z,0.00
2018-11-05T02:21:21.840Z,0.00
2018-11-05T02:22:21.781Z,0.00
2018-11-05T02:23:21.729Z,0.00
2018-11-05T02:24:21.689Z,0.00
2018-11-05T02:25:21.646Z,0.00
2018-11-05T02:26:21.579Z,0.00
2018-11-05T02:27:21.577Z,0.00
2018-11-05T02:28:21.458Z,0.00
2018-11-05T02:29:21.422Z,0.00
2018-11-05T02:30:21.406Z,0.00
2018-11-05T02:31:21.304Z,0.00
2018-11-05T02:32:21.249Z,0.00
2018-11-05T02:33:21.212Z,0.00
2018-11-05T02:34:21.141Z,0.00
2018-11-05T02:35:21.117Z,0.00
2018-11-05T02:36:21.049Z,0.00
2018-11-05T02:37:21.018Z,0.00
2018-11-05T02:38:20.930Z,0.00
2018-11-05T02:39:20.903Z,0.00
2018-11-05T02:40:20.862Z,0.00
2018-11-05T02:41:20.790Z,0.00
2018-11-05T02:42:20.740Z,0.00
2018-11-05T02:43:20.668Z,0.00
2018-11-05T02:44:20.655Z,0.00
2018-11-05T02:45:20.612Z,0.00
2018-11-05T02:46:20.548Z,0.00
2018-11-05T02:47:20.469Z,0.00
2018-11-05T02:48:20.458Z,0.00
2018-11-05T02:49:20.372Z,0.00
2018-11-05T02:50:20.373Z,0.00
2018-11-05T02:51:20.285Z,0.00
2018-11-05T02:52:20.244Z,0.00
2018-11-05T02:53:20.160Z,0.00
2018-11-05T02:54:20.109Z,0.00
2018-11-05T02:55:20.083Z,0.00
2018-11-05T02:56:19.995Z,0.00
2018-11-05T02:57:19.945Z,0.00
2018-11-05T02:58:19.888Z,0.00
2018-11-05T02:59:19.845Z,0.00
2018-11-05T03:00:19.839Z,0.00
2018-11-05T03:01:19.747Z,0.00
2018-11-05T03:02:19.688Z,0.00
2018-11-05T03:03:19.715Z,0.00
2018-11-05T03:04:19.589Z,0.00
2018-11-05T03:05:19.573Z,0.00
2018-11-05T03:06:19.482Z,0.00
2018-11-05T03:07:19.478Z,0.00
2018-11-05T03:08:19.366Z,0.00
2018-11-05T03:09:19.326Z,0.00
2018-11-05T03:10:19.288Z,0.00
2018-11-05T03:11:19.211Z,0.00
2018-11-05T03:12:19.177Z,0.00
2018-11-05T03:13:19.107Z,0.00
2018-11-05T03:14:19.089Z,0.00
2018-11-05T03:15:19.031Z,0.00
2018-11-05T03:16:18.964Z,0.00
2018-11-05T03:17:18.937Z,0.00
2018-11-05T03:18:18.847Z,0.00
2018-11-05T03:19:18.804Z,0.00
2018-11-05T03:20:18.777Z,0.00
2018-11-05T03:21:18.709Z,0.00
2018-11-05T03:22:18.648Z,0.00
2018-11-05T03:23:18.589Z,0.00
2018-11-05T03:24:18.555Z,0.00
2018-11-05T03:25:18.571Z,0.00
2018-11-05T03:26:18.432Z,0.00
2018-11-05T03:27:18.393Z,0.00
2018-11-05T03:28:18.329Z,0.00
2018-11-05T03:29:18.307Z,0.00
2018-11-05T03:30:18.259Z,0.00
2018-11-05T03:31:18.181Z,0.00
2018-11-05T03:32:18.119Z,0.00
2018-11-05T03:33:18.179Z,0.00
2018-11-05T03:34:18.010Z,0.00
2018-11-05T03:35:17.988Z,0.00
2018-11-05T03:36:17.910Z,0.00
2018-11-05T03:37:17.855Z,0.00
2018-11-05T03:38:17.807Z,0.00
2018-11-05T03:39:17.757Z,0.00
2018-11-05T03:40:17.762Z,0.00
2018-11-05T03:41:17.648Z,0.00
2018-11-05T03:42:17.606Z,0.00
2018-11-05T03:43:17.580Z,0.00
2018-11-05T03:44:17.492Z,0.00
2018-11-05T03:45:17.466Z,0.00
2018-11-05T03:46:17.401Z,0.00
2018-11-05T03:47:17.333Z,0.00
2018-11-05T03:48:17.285Z,0.00
2018-11-05T03:49:17.246Z,0.00
2018-11-05T03:50:17.208Z,0.00
2018-11-05T03:51:17.138Z,0.00
2018-11-05T03:52:17.081Z,0.00
2018-11-05T03:53:17.077Z,0.00
2018-11-05T03:54:16.984Z,0.00
2018-11-05T03:55:16.990Z,0.00
2018-11-05T03:56:16.992Z,0.00
2018-11-05T03:57:16.817Z,0.00
2018-11-05T03:58:16.770Z,0.00
2018-11-05T03:59:16.767Z,0.00
2018-11-05T04:00:16.727Z,0.00
2018-11-05T04:01:16.615Z,0.00
2018-11-05T04:02:16.573Z,0.00
2018-11-05T04:03:16.526Z,0.00
2018-11-05T04:04:16.478Z,0.00
2018-11-05T04:05:16.465Z,0.00
2018-11-05T04:06:16.434Z,0.00
2018-11-05T04:07:16.290Z,0.00
2018-11-05T04:08:16.269Z,0.00
2018-11-05T04:09:16.207Z,0.00
2018-11-05T04:10:16.149Z,0.00
2018-11-05T04:11:16.151Z,0.00
2018-11-05T04:12:16.055Z,0.00
2018-11-05T04:13:15.992Z,0.00
2018-11-05T04:14:15.935Z,0.00
2018-11-05T04:15:15.926Z,0.00
2018-11-05T04:16:16.014Z,0.00
2018-11-05T04:17:15.781Z,0.00
2018-11-05T04:18:15.734Z,0.00
2018-11-05T04:19:15.670Z,0.00
2018-11-05T04:20:15.688Z,0.00
2018-11-05T04:21:15.611Z,0.00
2018-11-05T04:22:15.526Z,0.00
2018-11-05T04:23:15.478Z,0.00
2018-11-05T04:24:15.490Z,0.00
2018-11-05T04:25:15.389Z,0.00
2018-11-05T04:26:15.357Z,0.00
2018-11-05T04:27:15.264Z,0.00
2018-11-05T04:28:15.209Z,0.00
2018-11-05T04:29:15.175Z,0.00
2018-11-05T04:30:15.142Z,0.00
2018-11-05T04:31:15.109Z,0.00
2018-11-05T04:32:15.140Z,0.00
2018-11-05T04:33:14.960Z,0.00
2018-11-05T04:34:14.892Z,0.00
2018-11-05T04:35:14.841Z,0.00
2018-11-05T04:36:14.832Z,0.00
2018-11-05T04:37:14.764Z,0.00
2018-11-05T04:38:14.692Z,0.00
2018-11-05T04:39:14.661Z,0.00
2018-11-05T04:40:14.598Z,0.00
2018-11-05T04:41:14.587Z,0.00
2018-11-05T04:42:14.502Z,0.00
2018-11-05T04:43:14.480Z,0.00
2018-11-05T04:44:14.416Z,0.00
2018-11-05T04:45:14.362Z,0.00
2018-11-05T04:46:15.696Z,0.00
2018-11-05T04:47:14.237Z,0.00
2018-11-05T04:48:14.222Z,0.00
2018-11-05T04:49:14.135Z,0.00
2018-11-05T04:50:14.060Z,0.00
2018-11-05T04:51:14.046Z,0.00
2018-11-05T04:52:13.963Z,0.00
2018-11-05T04:53:13.925Z,0.00
2018-11-05T04:54:13.862Z,0.00
2018-11-05T04:55:13.802Z,0.00
2018-11-05T04:56:13.798Z,0.00
2018-11-05T04:57:13.691Z,0.00
2018-11-05T04:58:13.673Z,0.00
2018-11-05T04:59:13.589Z,0.00
2018-11-05T05:00:13.549Z,0.00
2018-11-05T05:01:13.532Z,0.00
2018-11-05T05:02:13.438Z,0.00
2018-11-05T05:03:13.413Z,0.00
2018-11-05T05:04:13.352Z,0.00
2018-11-05T05:05:13.301Z,0.00
2018-11-05T05:06:13.263Z,0.00
2018-11-05T05:07:13.179Z,0.00
2018-11-05T05:08:13.122Z,0.00
2018-11-05T05:09:13.070Z,0.00
2018-11-05T05:10:13.023Z,0.00
2018-11-05T05:11:13.013Z,0.00
2018-11-05T05:12:12.918Z,0.00
2018-11-05T05:13:12.885Z,0.00
2018-11-05T05:14:12.820Z,0.00
2018-11-05T05:15:12.813Z,0.00
2018-11-05T05:16:12.821Z,0.00
2018-11-05T05:17:12.661Z,0.00
2018-11-05T05:18:12.613Z,0.00
2018-11-05T05:19:12.573Z,0.00
2018-11-05T05:20:12.512Z,0.00
2018-11-05T05:21:12.483Z,0.00
2018-11-05T05:22:12.417Z,0.00
2018-11-05T05:23:12.513Z,0.00
2018-11-05T05:24:12.314Z,0.00
2018-11-05T05:25:12.244Z,0.00
2018-11-05T05:26:12.221Z,0.00
2018-11-05T05:27:12.164Z,0.00
2018-11-05T05:28:12.104Z,0.00
2018-11-05T05:29:12.032Z,0.00
2018-11-05T05:30:11.990Z,0.00
2018-11-05T05:31:11.968Z,0.00
2018-11-05T05:32:11.897Z,0.00
2018-11-05T05:33:11.879Z,0.00
2018-11-05T05:34:11.795Z,0.00
2018-11-05T05:35:11.720Z,0.00
2018-11-05T05:36:11.716Z,0.00
2018-11-05T05:37:11.627Z,0.00
2018-11-05T05:38:11.571Z,0.00
2018-11-05T05:39:11.527Z,0.00
2018-11-05T05:40:11.481Z,0.00
2018-11-05T05:41:11.461Z,0.00
2018-11-05T05:42:11.361Z,0.00
2018-11-05T05:43:11.314Z,0.00
2018-11-05T05:44:11.258Z,0.00
2018-11-05T05:45:11.207Z,0.00
2018-11-05T05:46:11.200Z,0.00
2018-11-05T05:47:11.109Z,0.00
2018-11-05T05:48:11.058Z,0.00
2018-11-05T05:49:11.006Z,0.00
2018-11-05T05:50:11.038Z,0.00
2018-11-05T05:51:10.895Z,0.00
2018-11-05T05:52:10.869Z,0.00
2018-11-05T05:53:10.793Z,0.00
2018-11-05T05:54:10.781Z,0.00
2018-11-05T05:55:10.689Z,0.00
2018-11-05T05:56:10.657Z,0.00
2018-11-05T05:57:10.642Z,0.00
2018-11-05T05:58:10.543Z,0.00
2018-11-05T05:59:10.500Z,0.00
2018-11-05T06:00:10.441Z,0.00
2018-11-05T06:01:10.388Z,0.00
2018-11-05T06:02:10.368Z,4.00
2018-11-05T06:03:10.298Z,4.00
2018-11-05T06:04:10.229Z,4.00
2018-11-05T06:05:10.183Z,0.00
2018-11-05T06:06:10.268Z,4.00
2018-11-05T06:07:10.112Z,4.00
2018-11-05T06:08:10.030Z,4.00
2018-11-05T06:09:09.978Z,4.00
2018-11-05T06:10:09.931Z,4.00
2018-11-05T06:11:09.866Z,8.00
2018-11-05T06:12:09.850Z,12.00
2018-11-05T06:13:09.760Z,12.00
2018-11-05T06:14:09.715Z,12.00
2018-11-05T06:15:09.668Z,16.00
2018-11-05T06:16:09.632Z,20.00
2018-11-05T06:17:09.604Z,24.00
2018-11-05T06:18:09.512Z,24.00
2018-11-05T06:19:09.461Z,28.00
2018-11-05T06:20:09.412Z,28.00
2018-11-05T06:21:09.391Z,28.00
2018-11-05T06:22:09.341Z,32.00
2018-11-05T06:23:09.255Z,32.00
2018-11-05T06:24:09.209Z,36.00
2018-11-05T06:25:09.149Z,40.00
2018-11-05T06:26:09.119Z,48.00
2018-11-05T06:27:09.058Z,56.00
2018-11-05T06:28:09.030Z,60.00
2018-11-05T06:29:08.945Z,64.00
2018-11-05T06:30:08.900Z,72.00
2018-11-05T06:31:08.844Z,76.00
2018-11-05T06:32:08.788Z,84.00
2018-11-05T06:33:08.762Z,96.00
2018-11-05T06:34:08.683Z,96.00
2018-11-05T06:35:08.732Z,96.00
2018-11-05T06:36:08.584Z,104.00
2018-11-05T06:37:08.552Z,112.00
2018-11-05T06:38:08.520Z,124.00
2018-11-05T06:39:08.428Z,140.00
2018-11-05T06:40:08.392Z,152.00
2018-11-05T06:41:08.331Z,160.00
2018-11-05T06:42:08.282Z,168.00
2018-11-05T06:43:08.251Z,176.00
2018-11-05T06:44:08.214Z,196.00
2018-11-05T06:45:08.151Z,216.00
2018-11-05T06:46:08.071Z,212.00
2018-11-05T06:47:08.013Z,224.00
2018-11-05T06:48:08.001Z,236.00
2018-11-05T06:49:07.914Z,264.00
2018-11-05T06:50:07.878Z,288.00
2018-11-05T06:51:07.820Z,304.00
2018-11-05T06:52:07.764Z,324.00
2018-11-05T06:53:07.738Z,348.00
2018-11-05T06:54:07.664Z,380.00
2018-11-05T06:55:07.597Z,400.00
2018-11-05T06:56:07.562Z,432.00
2018-11-05T06:57:07.499Z,440.00
2018-11-05T06:58:07.489Z,492.00
2018-11-05T06:59:07.447Z,496.00
2018-11-05T07:00:07.347Z,540.00
2018-11-05T07:01:07.310Z,572.00
2018-11-05T07:02:07.241Z,580.00
2018-11-05T07:03:07.251Z,616.00
2018-11-05T07:04:07.206Z,664.00
2018-11-05T07:05:07.087Z,804.00
2018-11-05T07:06:07.043Z,792.00
2018-11-05T07:07:06.981Z,868.00
2018-11-05T07:08:06.976Z,876.00
2018-11-05T07:09:06.892Z,856.00
2018-11-05T07:10:06.837Z,820.00
2018-11-05T07:11:06.784Z,836.00
2018-11-05T07:12:06.777Z,868.00
2018-11-05T07:13:06.690Z,1028.00
2018-11-05T07:14:06.658Z,1088.00
2018-11-05T07:15:06.586Z,1044.00
2018-11-05T07:16:06.538Z,1064.00
2018-11-05T07:17:06.474Z,1108.00
2018-11-05T07:18:06.442Z,1152.00
2018-11-05T07:19:06.811Z,1160.00
2018-11-05T07:20:06.334Z,1148.00
2018-11-05T07:21:06.278Z,1136.00
2018-11-05T07:22:06.217Z,1184.00
2018-11-05T07:23:06.177Z,1332.00
2018-11-05T07:24:06.144Z,1324.00
2018-11-05T07:25:06.095Z,1212.00
2018-11-05T07:26:06.006Z,1276.00
2018-11-05T07:27:05.953Z,1308.00
2018-11-05T07:28:05.918Z,1260.00
2018-11-05T07:29:05.888Z,1336.00
2018-11-05T07:30:05.812Z,1544.00
2018-11-05T07:31:05.759Z,1668.00
2018-11-05T07:32:05.717Z,1592.00
2018-11-05T07:33:05.665Z,1588.00
2018-11-05T07:34:06.088Z,1672.00
2018-11-05T07:35:05.555Z,1672.00
2018-11-05T07:36:05.493Z,1648.00
2018-11-05T07:37:05.450Z,1728.00
2018-11-05T07:38:05.399Z,1864.00
2018-11-05T07:39:05.364Z,1940.00
2018-11-05T07:40:05.293Z,1924.00
2018-11-05T07:41:05.249Z,2092.00
2018-11-05T07:42:05.196Z,1836.00
2018-11-05T07:43:05.140Z,1848.00
2018-11-05T07:44:05.173Z,1920.00
2018-11-05T07:45:05.039Z,2012.00
2018-11-05T07:46:05.019Z,2112.00
2018-11-05T07:47:04.938Z,2028.00
2018-11-05T07:48:04.888Z,2188.00
2018-11-05T07:49:04.870Z,2112.00
2018-11-05T07:50:04.855Z,2084.00
2018-11-05T07:51:04.726Z,2268.00
2018-11-05T07:52:04.679Z,2092.00
2018-11-05T07:53:04.633Z,2036.00
2018-11-05T07:54:04.638Z,1968.00
2018-11-05T07:55:04.530Z,1888.00
2018-11-05T07:56:04.478Z,2052.00
2018-11-05T07:57:04.422Z,2056.00
2018-11-05T07:58:04.377Z,1952.00
2018-11-05T07:59:04.360Z,1764.00
2018-11-05T08:00:04.279Z,1844.00
2018-11-05T08:01:04.228Z,1804.00
2018-11-05T08:02:04.179Z,1800.00
2018-11-05T08:03:04.141Z,1736.00
2018-11-05T08:04:04.098Z,1628.00
2018-11-05T08:05:04.021Z,1680.00
2018-11-05T08:06:03.983Z,1512.00
2018-11-05T08:07:03.916Z,1412.00
2018-11-05T08:08:03.864Z,1272.00
2018-11-05T08:09:03.867Z,1268.00
2018-11-05T08:10:03.767Z,1276.00
2018-11-05T08:11:03.721Z,1348.00
2018-11-05T08:12:03.661Z,1512.00
2018-11-05T08:13:03.629Z,1404.00
2018-11-05T08:14:03.647Z,1276.00
2018-11-05T08:15:03.512Z,1216.00
2018-11-05T08:16:03.462Z,1520.00
2018-11-05T08:17:03.413Z,1920.00
2018-11-05T08:18:03.364Z,2052.00
2018-11-05T08:19:03.331Z,2028.00
2018-11-05T08:20:03.260Z,2200.00
2018-11-05T08:21:03.213Z,1904.00
2018-11-05T08:22:03.153Z,2048.00
2018-11-05T08:23:03.108Z,1916.00
2018-11-05T08:24:03.100Z,1828.00
2018-11-05T08:25:03.001Z,1972.00
2018-11-05T08:26:02.950Z,2148.00
2018-11-05T08:27:02.899Z,2276.00
2018-11-05T08:28:02.855Z,2096.00
2018-11-05T08:29:02.804Z,1920.00
2018-11-05T08:30:02.775Z,1932.00
2018-11-05T08:31:02.698Z,1956.00
2018-11-05T08:32:02.673Z,2088.00
2018-11-05T08:33:02.601Z,2092.00
2018-11-05T08:34:02.608Z,2268.00
2018-11-05T08:35:02.526Z,2436.00
2018-11-05T08:36:02.442Z,2544.00
2018-11-05T08:37:02.412Z,2792.00
2018-11-05T08:38:02.344Z,2864.00
2018-11-05T08:39:02.295Z,2688.00
2018-11-05T08:40:02.328Z,2616.00
2018-11-05T08:41:02.195Z,2264.00
2018-11-05T08:42:02.141Z,2328.00
2018-11-05T08:43:02.100Z,2200.00
2018-11-05T08:44:02.049Z,2516.00
2018-11-05T08:45:02.011Z,2448.00
2018-11-05T08:46:01.939Z,2676.00
2018-11-05T08:47:01.985Z,2576.00
2018-11-05T08:48:01.835Z,2520.00
2018-11-05T08:49:01.789Z,2508.00
2018-11-05T08:50:01.853Z,2400.00
2018-11-05T08:51:01.860Z,2864.00
2018-11-05T08:52:01.637Z,2624.00
2018-11-05T08:53:01.579Z,2540.00
2018-11-05T08:54:01.548Z,2784.00
2018-11-05T08:55:01.507Z,2512.00
2018-11-05T08:56:01.430Z,2832.00
2018-11-05T08:57:01.380Z,2904.00
2018-11-05T08:58:01.330Z,2732.00
2018-11-05T08:59:01.279Z,2740.00
2018-11-05T09:00:01.253Z,2864.00
2018-11-05T09:01:01.227Z,3348.00
2018-11-05T09:02:01.130Z,3028.00
2018-11-05T09:03:01.077Z,2888.00
2018-11-05T09:04:01.026Z,2868.00
2018-11-05T09:05:01.025Z,2536.00
2018-11-05T09:06:00.925Z,2624.00
2018-11-05T09:07:00.873Z,2496.00
2018-11-05T09:08:00.823Z,2464.00
2018-11-05T09:09:00.774Z,2328.00
2018-11-05T09:10:00.819Z,2108.00
2018-11-05T09:11:01.026Z,2208.00
2018-11-05T09:12:00.714Z,2036.00
2018-11-05T09:13:00.568Z,2168.00
2018-11-05T09:14:00.524Z,2120.00
2018-11-05T09:15:00.502Z,2096.00
2018-11-05T09:16:00.453Z,1944.00
2018-11-05T09:17:00.374Z,1936.00
2018-11-05T09:18:00.321Z,1980.00
2018-11-05T09:19:00.269Z,2120.00
2018-11-05T09:20:00.247Z,2088.00
2018-11-05T09:21:00.164Z,2264.00
2018-11-05T09:22:00.119Z,2368.00
2018-11-05T09:23:00.064Z,2236.00
2018-11-05T09:24:00.019Z,2288.00
2018-11-05T09:24:59.992Z,2536.00
2018-11-05T09:25:59.918Z,2756.00
2018-11-05T09:26:59.867Z,2424.00
2018-11-05T09:27:59.905Z,2328.00
2018-11-05T09:28:59.768Z,2488.00
2018-11-05T09:29:59.742Z,2632.00
2018-11-05T09:30:59.666Z,2744.00
2018-11-05T09:31:59.615Z,2804.00
2018-11-05T09:32:59.561Z,2700.00
2018-11-05T09:33:59.512Z,2760.00
2018-11-05T09:34:59.490Z,2812.00
2018-11-05T09:35:59.413Z,2748.00
2018-11-05T09:36:59.363Z,2792.00
2018-11-05T09:37:59.319Z,2808.00
2018-11-05T09:38:59.263Z,2540.00
2018-11-05T09:39:59.237Z,2708.00
2018-11-05T09:40:59.167Z,2736.00
2018-11-05T09:41:59.112Z,2584.00
2018-11-05T09:42:59.172Z,2428.00
2018-11-05T09:43:59.014Z,2684.00
2018-11-05T09:44:58.986Z,3012.00
2018-11-05T09:45:58.915Z,3188.00
2018-11-05T09:46:58.868Z,2796.00
2018-11-05T09:47:58.808Z,3188.00
2018-11-05T09:48:58.760Z,3236.00
2018-11-05T09:49:58.738Z,3616.00
2018-11-05T09:50:58.656Z,3584.00
2018-11-05T09:51:58.616Z,3756.00
2018-11-05T09:52:58.557Z,3256.00
2018-11-05T09:53:58.511Z,3132.00
2018-11-05T09:54:58.502Z,3376.00
2018-11-05T09:55:58.409Z,3564.00
2018-11-05T09:56:58.431Z,3672.00
2018-11-05T09:57:58.309Z,3940.00
2018-11-05T09:58:58.256Z,3308.00
2018-11-05T09:59:58.211Z,3516.00
2018-11-05T10:00:58.182Z,3592.00
2018-11-05T10:01:58.112Z,2956.00
2018-11-05T10:02:58.158Z,2604.00
2018-11-05T10:03:58.055Z,2684.00
2018-11-05T10:04:58.330Z,3268.00
2018-11-05T10:05:57.934Z,3432.00
2018-11-05T10:06:57.857Z,3352.00
2018-11-05T10:07:57.809Z,3356.00
2018-11-05T10:08:57.760Z,3276.00
2018-11-05T10:09:57.710Z,3492.00
2018-11-05T10:10:57.688Z,3644.00
2018-11-05T10:11:57.610Z,3752.00
2018-11-05T10:12:57.560Z,3588.00
2018-11-05T10:13:57.509Z,2916.00
2018-11-05T10:14:57.456Z,2844.00
2018-11-05T10:15:57.441Z,3520.00
2018-11-05T10:16:57.359Z,3888.00
2018-11-05T10:17:57.311Z,4256.00
2018-11-05T10:18:57.257Z,3436.00
2018-11-05T10:19:57.213Z,3164.00
2018-11-05T10:20:57.182Z,3064.00
2018-11-05T10:21:57.109Z,2884.00
2018-11-05T10:22:57.069Z,2624.00
2018-11-05T10:23:57.056Z,2660.00
2018-11-05T10:24:57.072Z,2860.00
2018-11-05T10:25:56.958Z,2836.00
2018-11-05T10:26:56.863Z,2972.00
2018-11-05T10:27:56.808Z,2980.00
2018-11-05T10:28:56.758Z,2964.00
2018-11-05T10:29:56.710Z,2664.00
2018-11-05T10:30:56.688Z,2692.00
2018-11-05T10:31:56.616Z,2492.00
2018-11-05T10:32:56.599Z,2580.00
2018-11-05T10:33:56.513Z,2580.00
2018-11-05T10:34:56.461Z,2756.00
2018-11-05T10:35:56.436Z,2800.00
2018-11-05T10:36:56.362Z,3312.00
2018-11-05T10:37:56.316Z,3308.00
2018-11-05T10:38:56.261Z,3516.00
2018-11-05T10:39:56.216Z,3340.00
2018-11-05T10:40:56.183Z,3096.00
2018-11-05T10:41:56.113Z,3184.00
2018-11-05T10:42:56.059Z,3304.00
2018-11-05T10:43:56.009Z,2688.00
2018-11-05T10:44:55.962Z,3024.00
2018-11-05T10:45:55.940Z,2864.00
2018-11-05T10:46:55.863Z,3076.00
2018-11-05T10:47:55.813Z,3044.00
2018-11-05T10:48:55.764Z,2792.00
2018-11-05T10:49:55.712Z,2704.00
2018-11-05T10:50:55.699Z,2840.00
2018-11-05T10:51:55.754Z,2904.00
2018-11-05T10:52:55.569Z,3052.00
2018-11-05T10:53:55.517Z,3140.00
2018-11-05T10:54:55.462Z,3212.00
2018-11-05T10:55:55.439Z,3216.00
2018-11-05T10:56:55.369Z,3252.00
2018-11-05T10:57:55.323Z,3264.00
2018-11-05T10:58:55.264Z,3252.00
2018-11-05T10:59:55.213Z,3476.00
2018-11-05T11:00:55.186Z,3236.00
2018-11-05T11:01:55.117Z,3144.00
2018-11-05T11:02:55.063Z,2992.00
2018-11-05T11:03:55.105Z,2880.00
2018-11-05T11:04:54.965Z,2820.00
2018-11-05T11:05:54.948Z,2740.00
2018-11-05T11:06:54.864Z,2672.00
2018-11-05T11:07:54.816Z,2752.00
2018-11-05T11:08:54.769Z,2844.00
2018-11-05T11:09:54.717Z,2856.00
2018-11-05T11:10:54.710Z,2884.00
2018-11-05T11:11:54.617Z,2872.00
2018-11-05T11:12:54.566Z,2852.00
2018-11-05T11:13:54.521Z,2844.00
2018-11-05T11:14:54.505Z,2880.00
2018-11-05T11:15:54.417Z,2996.00
2018-11-05T11:16:54.392Z,3040.00
2018-11-05T11:17:54.322Z,3064.00
2018-11-05T11:18:54.267Z,3052.00
2018-11-05T11:19:54.223Z,3096.00
2018-11-05T11:20:54.169Z,3108.00
2018-11-05T11:21:54.185Z,3064.00
2018-11-05T11:22:54.069Z,3004.00
2018-11-05T11:23:54.021Z,2960.00
2018-11-05T11:24:53.973Z,3008.00
2018-11-05T11:25:53.924Z,3076.00
2018-11-05T11:26:53.902Z,2996.00
2018-11-05T11:27:53.876Z,2924.00
2018-11-05T11:28:53.891Z,2852.00
2018-11-05T11:29:53.724Z,2820.00
2018-11-05T11:30:53.673Z,2864.00
2018-11-05T11:31:53.658Z,2936.00
2018-11-05T11:32:53.573Z,3000.00
2018-11-05T11:33:53.526Z,3032.00
2018-11-05T11:34:53.472Z,3080.00
2018-11-05T11:35:53.427Z,3020.00
2018-11-05T11:36:53.446Z,2988.00
2018-11-05T11:37:53.327Z,2924.00
2018-11-05T11:38:53.277Z,2900.00
2018-11-05T11:39:53.232Z,2888.00
2018-11-05T11:40:53.177Z,2896.00
2018-11-05T11:41:53.155Z,2900.00
2018-11-05T11:42:53.077Z,2908.00
2018-11-05T11:43:53.063Z,2924.00
2018-11-05T11:44:53.072Z,2976.00
2018-11-05T11:45:52.960Z,3016.00
2018-11-05T11:46:52.907Z,3032.00
2018-11-05T11:47:52.845Z,3068.00
2018-11-05T11:48:52.790Z,3080.00
2018-11-05T11:49:52.735Z,3132.00
2018-11-05T11:50:52.683Z,3164.00
2018-11-05T11:51:52.659Z,3236.00
2018-11-05T11:52:52.734Z,3296.00
2018-11-05T11:53:52.534Z,3284.00
2018-11-05T11:54:52.481Z,3244.00
2018-11-05T11:55:52.433Z,3236.00
2018-11-05T11:56:52.417Z,3208.00
2018-11-05T11:57:52.335Z,3172.00
2018-11-05T11:58:52.287Z,3124.00
2018-11-05T11:59:52.237Z,3080.00
2018-11-05T12:00:52.186Z,3028.00
2018-11-05T12:01:52.168Z,3000.00
2018-11-05T12:02:52.087Z,3012.00
2018-11-05T12:03:52.034Z,3024.00
2018-11-05T12:04:52.070Z,2992.00
2018-11-05T12:05:51.968Z,2960.00
2018-11-05T12:06:54.480Z,2944.00
2018-11-05T12:07:51.838Z,2952.00
2018-11-05T12:08:51.791Z,2960.00
2018-11-05T12:09:51.741Z,2960.00
2018-11-05T12:10:51.694Z,2936.00
2018-11-05T12:11:51.669Z,2888.00
2018-11-05T12:12:51.595Z,2796.00
2018-11-05T12:13:51.564Z,2700.00
2018-11-05T12:14:51.649Z,2664.00
2018-11-05T12:15:51.448Z,2660.00
2018-11-05T12:16:51.422Z,2656.00
2018-11-05T12:17:51.344Z,2688.00
2018-11-05T12:18:51.295Z,2732.00
2018-11-05T12:19:51.249Z,2812.00
2018-11-05T12:20:51.201Z,2828.00
2018-11-05T12:21:51.182Z,2852.00
2018-11-05T12:22:51.096Z,2812.00
2018-11-05T12:23:51.047Z,2808.00
2018-11-05T12:24:51.027Z,2836.00
2018-11-05T12:25:50.955Z,2900.00
2018-11-05T12:26:50.903Z,2956.00
2018-11-05T12:27:50.875Z,3036.00
2018-11-05T12:28:50.807Z,3108.00
2018-11-05T12:29:50.756Z,3152.00
2018-11-05T12:30:50.708Z,3188.00
2018-11-05T12:31:50.655Z,3240.00
2018-11-05T12:32:50.634Z,3292.00
2018-11-05T12:33:50.560Z,3284.00
2018-11-05T12:34:50.508Z,3316.00
2018-11-05T12:35:50.462Z,3368.00
2018-11-05T12:36:50.432Z,3360.00
2018-11-05T12:37:50.389Z,3312.00
2018-11-05T12:38:50.450Z,3244.00
2018-11-05T12:39:50.269Z,3200.00
2018-11-05T12:40:50.219Z,3216.00
2018-11-05T12:41:50.164Z,3188.00